Air Quality Table

TIMESTAMP NO2 SO2 O3 PM10 PM2.5 CO TEMP HUM AIRPRES WS WD NO BENZENE
2022-01-24 18:00 31.5 µg/m3 0.62 µg/m3 58.55 µg/m3 7.98 µg/m3 6.22 µg/m3 0.37 mg/m3 11.42 °C 73.76 % 1,023.99 mbar 3.76 m/s 48.63 Deg 28.59 µg/m3 1.84 µg/m3
2022-01-24 17:00 31.86 µg/m3 0.48 µg/m3 56.16 µg/m3 8.17 µg/m3 4.84 µg/m3 0.33 mg/m3 11.98 °C 68.23 % 1,023.60 mbar 2.15 m/s 177.23 Deg 18.76 µg/m3 1.87 µg/m3
2022-01-24 16:00 33 µg/m3 0.33 µg/m3 55.41 µg/m3 19.86 µg/m3 5.99 µg/m3 0.29 mg/m3 12.39 °C 62.63 % 1,023.58 mbar 2.1 m/s 304.42 Deg 10.6 µg/m3 1.24 µg/m3
2022-01-24 15:00 26.85 µg/m3 0.34 µg/m3 63.49 µg/m3 30.34 µg/m3 7.73 µg/m3 0.26 mg/m3 12.92 °C 57.97 % 1,023.32 mbar 2.73 m/s 303.07 Deg 7.01 µg/m3 1.23 µg/m3
2022-01-24 14:00 30.46 µg/m3 0.37 µg/m3 59.31 µg/m3 40.41 µg/m3 7.99 µg/m3 0.28 mg/m3 13.3 °C 57.59 % 1,023.55 mbar 2.18 m/s 303.48 Deg 10.1 µg/m3 1.24 µg/m3
2022-01-24 13:00 22.93 µg/m3 0.36 µg/m3 66.08 µg/m3 18.4 µg/m3 6.4 µg/m3 0.26 mg/m3 13.76 °C 52.39 % 1,024.17 mbar 2.68 m/s 301.47 Deg 7.34 µg/m3 1.03 µg/m3
2022-01-24 12:00 22.64 µg/m3 0.34 µg/m3 65.08 µg/m3 33.82 µg/m3 8.25 µg/m3 0.24 mg/m3 13.9 °C 50.19 % 1,024.88 mbar 2.53 m/s 304.73 Deg 8.98 µg/m3 1.05 µg/m3
2022-01-24 11:00 31.4 µg/m3 0.35 µg/m3 56.86 µg/m3 36.87 µg/m3 7.96 µg/m3 0.28 mg/m3 13.21 °C 55.61 % 1,025.26 mbar 2.1 m/s 307.95 Deg 10.47 µg/m3 1.99 µg/m3
2022-01-24 10:00 46.94 µg/m3 0.67 µg/m3 38.12 µg/m3 59.28 µg/m3 12.43 µg/m3 0.38 mg/m3 13.05 °C 53.92 % 1,025.13 mbar 1.78 m/s 274.53 Deg 24.03 µg/m3 3.76 µg/m3
2022-01-24 09:00 74.41 µg/m3 1.06 µg/m3 18.15 µg/m3 75.47 µg/m3 15.15 µg/m3 0.53 mg/m3 12.47 °C 51.82 % 1,024.91 mbar 1.18 m/s 264.33 Deg 49.87 µg/m3 5.3 µg/m3
2022-01-24 08:00 92.22 µg/m3 1.84 µg/m3 9.61 µg/m3 52.97 µg/m3 12.73 µg/m3 0.85 mg/m3 11.04 °C 56.25 % 1,024.80 mbar 1.1 m/s 260.88 Deg 96.14 µg/m3 3.73 µg/m3
2022-01-24 07:00 79.01 µg/m3 1.35 µg/m3 11.82 µg/m3 30.68 µg/m3 11 µg/m3 0.7 mg/m3 10.64 °C 59.9 % 1,024.66 mbar 1.03 m/s 270.87 Deg 58.92 µg/m3 7.24 µg/m3
2022-01-24 06:00 63.25 µg/m3 1.02 µg/m3 14.83 µg/m3 21.28 µg/m3 8.46 µg/m3 0.5 mg/m3 10.75 °C 55.86 % 1,024.61 mbar 1.04 m/s 263.77 Deg 45.71 µg/m3 2.38 µg/m3
2022-01-24 05:00 37.5 µg/m3 0.39 µg/m3 31.13 µg/m3 15.43 µg/m3 7.09 µg/m3 0.24 mg/m3 11.02 °C 56.37 % 1,024.84 mbar 0.73 m/s 278.27 Deg 6.71 µg/m3 2.2 µg/m3
2022-01-24 04:00 23.33 µg/m3 0.35 µg/m3 61.62 µg/m3 17.16 µg/m3 7.17 µg/m3 0.21 mg/m3 11.4 °C 54.16 % 1,025.06 mbar 0.67 m/s 252.83 Deg 3.8 µg/m3 0.89 µg/m3
2022-01-24 03:00 4.6 µg/m3 0.31 µg/m3 78.67 µg/m3 7.68 µg/m3 3.66 µg/m3 0.14 mg/m3 11.79 °C 50.78 % 1,025.41 mbar 2.46 m/s 44.23 Deg 0.34 µg/m3 0.94 µg/m3
2022-01-24 02:00 12.88 µg/m3 0.25 µg/m3 80.05 µg/m3 8.89 µg/m3 4.27 µg/m3 0.18 mg/m3 11.91 °C 57.56 % 1,025.60 mbar 2.79 m/s 45.8 Deg 3.49 µg/m3 1.19 µg/m3
2022-01-24 01:00 6.28 µg/m3 0.38 µg/m3 84.12 µg/m3 5.98 µg/m3 3.65 µg/m3 0.18 mg/m3 12.1 °C 59.74 % 1,025.66 mbar 3.75 m/s 48.55 Deg 2.31 µg/m3 1.45 µg/m3
2022-01-24 00:00 12.36 µg/m3 0.38 µg/m3 76.8 µg/m3 8.42 µg/m3 4.9 µg/m3 0.21 mg/m3 12.2 °C 60.33 % 1,025.80 mbar 3.75 m/s 122.2 Deg 3.73 µg/m3 2.8 µg/m3
2022-01-23 23:00 45.03 µg/m3 0.45 µg/m3 27.12 µg/m3 29.45 µg/m3 15.83 µg/m3 0.48 mg/m3 11.18 °C 63.33 % 1,025.65 mbar 0.74 m/s 231.62 Deg 5.57 µg/m3 3.54 µg/m3
2022-01-23 22:00 53.01 µg/m3 0.46 µg/m3 22.58 µg/m3 33.03 µg/m3 16.79 µg/m3 0.53 mg/m3 11.28 °C 62.67 % 1,025.75 mbar 0.77 m/s 230.33 Deg 7.35 µg/m3 3.23 µg/m3
2022-01-23 21:00 50.67 µg/m3 0.46 µg/m3 27.88 µg/m3 32.08 µg/m3 14.68 µg/m3 0.51 mg/m3 11.68 °C 60.28 % 1,025.85 mbar 0.78 m/s 228.3 Deg 6.61 µg/m3 4.36 µg/m3
2022-01-23 20:00 59.86 µg/m3 0.56 µg/m3 22.79 µg/m3 33.86 µg/m3 15.55 µg/m3 0.54 mg/m3 11.74 °C 58.08 % 1,025.94 mbar 0.88 m/s 229.1 Deg 11.37 µg/m3 5.3 µg/m3
2022-01-23 19:00 58.31 µg/m3 0.47 µg/m3 30.18 µg/m3 25.7 µg/m3 11.84 µg/m3 0.48 mg/m3 12.12 °C 55.39 % 1,025.98 mbar 1.28 m/s 237.92 Deg 9.53 µg/m3 3.08 µg/m3
2022-01-23 18:00 37.94 µg/m3 0.29 µg/m3 52.32 µg/m3 20.48 µg/m3 10.28 µg/m3 0.36 mg/m3 12.73 °C 54.26 % 1,025.72 mbar 1.21 m/s 269.47 Deg 3.36 µg/m3 1.94 µg/m3
2022-01-23 17:00 26.09 µg/m3 0.32 µg/m3 65.98 µg/m3 15.16 µg/m3 7.17 µg/m3 0.29 mg/m3 13.12 °C 55.19 % 1,025.75 mbar 1.68 m/s 291.35 Deg 3.32 µg/m3 1.4 µg/m3
2022-01-23 16:00 16.59 µg/m3 0.3 µg/m3 72.82 µg/m3 13.52 µg/m3 6.08 µg/m3 0.26 mg/m3 13.49 °C 51.65 % 1,025.89 mbar 2.12 m/s 289.6 Deg 2.93 µg/m3 1.54 µg/m3
2022-01-23 15:00 15.84 µg/m3 0.32 µg/m3 73.59 µg/m3 11.92 µg/m3 4.97 µg/m3 0.24 mg/m3 13.7 °C 50.29 % 1,026.03 mbar 2.1 m/s 289.82 Deg 3.34 µg/m3 3.6 µg/m3
2022-01-23 14:00 16.47 µg/m3 0.36 µg/m3 71.94 µg/m3 10.27 µg/m3 4.22 µg/m3 0.24 mg/m3 13.82 °C 41.47 % 1,026.57 mbar 1.93 m/s 298.57 Deg 6 µg/m3 0.97 µg/m3
2022-01-23 13:00 16.57 µg/m3 0.44 µg/m3 70.16 µg/m3 13.13 µg/m3 3.93 µg/m3 0.28 mg/m3 13.85 °C 38.34 % 1,027.33 mbar 1.57 m/s 255.77 Deg 10.81 µg/m3 2.28 µg/m3
2022-01-23 12:00 24.79 µg/m3 0.57 µg/m3 65.07 µg/m3 27.3 µg/m3 6.46 µg/m3 0.32 mg/m3 13.59 °C 43.11 % 1,027.91 mbar 1.49 m/s 187.05 Deg 18.08 µg/m3 3.55 µg/m3
2022-01-23 11:00 19.52 µg/m3 0.5 µg/m3 65.47 µg/m3 39.5 µg/m3 8.48 µg/m3 0.45 mg/m3 13.17 °C 48.47 % 1,027.88 mbar 1.53 m/s 105.85 Deg 13.29 µg/m3 2.29 µg/m3
2022-01-23 10:00 19.78 µg/m3 0.41 µg/m3 63.78 µg/m3 26.29 µg/m3 6.98 µg/m3 0.3 mg/m3 12.69 °C 52.62 % 1,027.37 mbar 2.22 m/s 40.63 Deg 15.41 µg/m3 2.99 µg/m3
2022-01-23 09:00 17.32 µg/m3 0.36 µg/m3 64.05 µg/m3 17.48 µg/m3 5.68 µg/m3 0.28 mg/m3 12.45 °C 50.08 % 1,026.84 mbar 2.09 m/s 40.77 Deg 12.9 µg/m3 1.4 µg/m3
2022-01-23 08:00 14.37 µg/m3 0.32 µg/m3 66.1 µg/m3 9.19 µg/m3 3.92 µg/m3 0.24 mg/m3 11.7 °C 58.44 % 1,026.28 mbar 2.23 m/s 41.97 Deg 9.55 µg/m3 2.24 µg/m3
2022-01-23 07:00 11.01 µg/m3 0.26 µg/m3 72.45 µg/m3 6.52 µg/m3 3.17 µg/m3 0.23 mg/m3 11.48 °C 57.13 % 1,025.75 mbar 3 m/s 42.85 Deg 4.55 µg/m3 1.34 µg/m3
2022-01-23 06:00 7.61 µg/m3 0.22 µg/m3 71.21 µg/m3 5.87 µg/m3 3.1 µg/m3 0.2 mg/m3 11.62 °C 56.93 % 1,025.19 mbar 3.28 m/s 42.55 Deg 3.09 µg/m3 3.36 µg/m3
2022-01-23 05:00 7.14 µg/m3 0.19 µg/m3 71.18 µg/m3 8.47 µg/m3 3.96 µg/m3 0.19 mg/m3 11.68 °C 61.78 % 1,025.05 mbar 2.34 m/s 41.97 Deg 2.22 µg/m3 1.03 µg/m3
2022-01-23 04:00 9.06 µg/m3 0.3 µg/m3 72.02 µg/m3 11.57 µg/m3 5.04 µg/m3 0.18 mg/m3 11.51 °C 69.19 % 1,025.19 mbar 1.88 m/s 45.27 Deg 3.82 µg/m3 0.94 µg/m3
2022-01-23 03:00 10.06 µg/m3 0.19 µg/m3 72.82 µg/m3 8.96 µg/m3 5.18 µg/m3 0.17 mg/m3 10.84 °C 74.13 % 1,025.44 mbar 2.71 m/s 54 Deg 4.44 µg/m3 0.89 µg/m3
2022-01-23 02:00 6.46 µg/m3 0.22 µg/m3 71.25 µg/m3 7.44 µg/m3 5.22 µg/m3 0.21 mg/m3 10.12 °C 84.7 % 1,025.54 mbar 2.69 m/s 42.07 Deg 2.48 µg/m3 1.03 µg/m3
2022-01-23 01:00 21.16 µg/m3 0.49 µg/m3 49.46 µg/m3 16.01 µg/m3 11.43 µg/m3 0.42 mg/m3 10.42 °C 85.45 % 1,025.09 mbar 1.99 m/s 76 Deg 9.4 µg/m3 5.56 µg/m3
2022-01-23 00:00 57.06 µg/m3 1.17 µg/m3 3.63 µg/m3 55.35 µg/m3 38.08 µg/m3 1.16 mg/m3 10.27 °C 84.37 % 1,024.72 mbar 0.67 m/s 227.17 Deg 50.18 µg/m3 8.06 µg/m3
2022-01-22 23:00 59.53 µg/m3 1.5 µg/m3 4.15 µg/m3 65.6 µg/m3 44.75 µg/m3 1.3 mg/m3 10.46 °C 83.92 % 1,024.36 mbar 0.73 m/s 225.98 Deg 69.45 µg/m3 11.47 µg/m3
2022-01-22 22:00 67.49 µg/m3 1.44 µg/m3 4.64 µg/m3 67.04 µg/m3 45.05 µg/m3 1.34 mg/m3 10.85 °C 83.34 % 1,024.16 mbar 0.5 m/s 232.29 Deg 71.15 µg/m3 10.9 µg/m3
2022-01-22 21:00 71.83 µg/m3 1.06 µg/m3 5.83 µg/m3 46.63 µg/m3 31.24 µg/m3 1.03 mg/m3 11.38 °C 81.46 % 1,023.90 mbar 0.79 m/s 228.59 Deg 51.22 µg/m3 6.61 µg/m3
2022-01-22 20:00 56.66 µg/m3 0.39 µg/m3 23.22 µg/m3 21.79 µg/m3 14.62 µg/m3 0.51 mg/m3 11.98 °C 79.11 % 1,023.60 mbar 0.61 m/s 206.35 Deg 12.49 µg/m3 3.08 µg/m3

It is to be noted that the data is provisional and subject to quality assurance procedures. For validated data kindly refer your request to contact.air@era.org.mt